createdAt,value
2022-11-17T00:01:42.825Z,96982.00
2022-11-17T00:04:13.669Z,96964.00
2022-11-17T00:06:44.850Z,96950.00
2022-11-17T00:09:17.649Z,96952.00
2022-11-17T00:12:07.909Z,96959.00
2022-11-17T00:14:40.934Z,96944.00
2022-11-17T00:17:13.928Z,96928.00
2022-11-17T00:20:03.121Z,96942.00
2022-11-17T00:22:34.040Z,96930.00
2022-11-17T00:25:05.390Z,96923.00
2022-11-17T00:27:36.315Z,96914.00
2022-11-17T00:30:08.446Z,96920.00
2022-11-17T00:32:57.478Z,96931.00
2022-11-17T00:35:28.391Z,96935.00
2022-11-17T00:38:17.348Z,96941.00
2022-11-17T00:40:48.291Z,96937.00
2022-11-17T00:43:19.159Z,96933.00
2022-11-17T00:45:50.045Z,96955.00
2022-11-17T00:48:20.884Z,96930.00
2022-11-17T00:50:51.760Z,96921.00
2022-11-17T00:53:22.629Z,96920.00
2022-11-17T00:55:53.600Z,96917.00
2022-11-17T00:58:24.538Z,96919.00
2022-11-17T01:00:55.437Z,96909.00
2022-11-17T01:03:26.290Z,96896.00
2022-11-17T01:06:07.493Z,96894.00
2022-11-17T01:08:39.021Z,96900.00
2022-11-17T01:11:16.630Z,96885.00
2022-11-17T01:13:48.665Z,96882.00
2022-11-17T01:16:20.038Z,96876.00
2022-11-17T01:18:52.136Z,96880.00
2022-11-17T01:21:25.982Z,96870.00
2022-11-17T01:23:59.898Z,96881.00
2022-11-17T01:26:34.110Z,96846.00
2022-11-17T01:29:06.650Z,96843.00
2022-11-17T01:31:41.218Z,96849.00
2022-11-17T01:34:12.688Z,96845.00
2022-11-17T01:37:03.034Z,96833.00
2022-11-17T01:39:33.967Z,96836.00
2022-11-17T01:42:14.527Z,96833.00
2022-11-17T01:45:05.595Z,96821.00
2022-11-17T01:47:47.120Z,96825.00
2022-11-17T01:50:38.100Z,96820.00
2022-11-17T01:53:14.868Z,96811.00
2022-11-17T01:55:53.355Z,96801.00
2022-11-17T01:58:38.245Z,96803.00
2022-11-17T02:01:09.324Z,96804.00
2022-11-17T02:03:41.879Z,96794.00
2022-11-17T02:06:24.104Z,96789.00
2022-11-17T02:08:56.683Z,96787.00
2022-11-17T02:11:36.125Z,96776.00
2022-11-17T02:14:07.227Z,96768.00
2022-11-17T02:16:38.098Z,96775.00
2022-11-17T02:19:12.089Z,96753.00
2022-11-17T02:21:48.658Z,96751.00
2022-11-17T02:24:56.812Z,96740.00
2022-11-17T02:27:45.754Z,96732.00
2022-11-17T02:30:22.198Z,96746.00
2022-11-17T02:33:15.831Z,96739.00
2022-11-17T02:36:08.626Z,96724.00
2022-11-17T02:38:54.797Z,96714.00
2022-11-17T02:41:41.714Z,96718.00
2022-11-17T02:44:43.070Z,96704.00
2022-11-17T02:47:24.296Z,96713.00
2022-11-17T02:50:03.887Z,96671.00
2022-11-17T02:52:35.069Z,96675.00
2022-11-17T02:55:11.099Z,96684.00
2022-11-17T02:57:42.304Z,96673.00
2022-11-17T03:00:18.709Z,96675.00
2022-11-17T03:03:16.550Z,96668.00
2022-11-17T03:06:11.353Z,96664.00
2022-11-17T03:09:18.963Z,96679.00
2022-11-17T03:12:00.011Z,96707.00
2022-11-17T03:14:51.376Z,96709.00
2022-11-17T03:17:41.359Z,96720.00
2022-11-17T03:20:25.935Z,96716.00
2022-11-17T03:23:08.992Z,96708.00
2022-11-17T03:25:43.015Z,96700.00
2022-11-17T03:28:17.699Z,96686.00
2022-11-17T03:30:50.502Z,96688.00
2022-11-17T03:33:23.854Z,96697.00
2022-11-17T03:36:07.653Z,96691.00
2022-11-17T03:38:48.660Z,96701.00
2022-11-17T03:41:22.160Z,96695.00
2022-11-17T03:43:56.510Z,96686.00
2022-11-17T03:46:30.367Z,96680.00
2022-11-17T03:49:29.820Z,96683.00
2022-11-17T03:52:01.283Z,96678.00
2022-11-17T03:54:33.155Z,96675.00
2022-11-17T03:57:25.224Z,96682.00
2022-11-17T04:00:02.131Z,96664.00
2022-11-17T04:02:33.264Z,96685.00
2022-11-17T04:05:07.401Z,96689.00
2022-11-17T04:07:43.297Z,96673.00
2022-11-17T04:10:21.430Z,96664.00
2022-11-17T04:13:12.257Z,96661.00
2022-11-17T04:15:59.113Z,96659.00
2022-11-17T04:18:30.420Z,96673.00
2022-11-17T04:21:01.339Z,96667.00
2022-11-17T04:23:32.436Z,96665.00
2022-11-17T04:26:22.445Z,96676.00
2022-11-17T04:28:53.350Z,96669.00
2022-11-17T04:31:33.391Z,96658.00
2022-11-17T04:34:06.527Z,96663.00
2022-11-17T04:36:43.480Z,96659.00
2022-11-17T04:39:15.854Z,96652.00
2022-11-17T04:41:57.430Z,96652.00
2022-11-17T04:44:31.518Z,96649.00
2022-11-17T04:47:03.742Z,96646.00
2022-11-17T04:49:34.701Z,96646.00
2022-11-17T04:52:05.715Z,96642.00
2022-11-17T04:54:36.585Z,96648.00
2022-11-17T04:57:10.296Z,96655.00
2022-11-17T04:59:41.190Z,96650.00
2022-11-17T05:02:12.079Z,96658.00
2022-11-17T05:05:03.234Z,96660.00
2022-11-17T05:07:34.252Z,96658.00
2022-11-17T05:10:06.017Z,96654.00
2022-11-17T05:12:55.097Z,96646.00
2022-11-17T05:15:45.923Z,96664.00
2022-11-17T05:18:16.799Z,96671.00
2022-11-17T05:20:47.660Z,96670.00
2022-11-17T05:23:41.415Z,96666.00
2022-11-17T05:26:19.150Z,96670.00
2022-11-17T05:28:56.332Z,96664.00
2022-11-17T05:31:28.795Z,96682.00
2022-11-17T05:34:01.331Z,96667.00
2022-11-17T05:36:32.492Z,96673.00
2022-11-17T05:39:04.060Z,96681.00
2022-11-17T05:41:35.359Z,96683.00
2022-11-17T05:44:06.306Z,96684.00
2022-11-17T05:46:37.222Z,96686.00
2022-11-17T05:49:08.087Z,96682.00
2022-11-17T05:51:38.997Z,96676.00
2022-11-17T05:54:09.996Z,96686.00
2022-11-17T05:56:44.020Z,96678.00
2022-11-17T05:59:29.651Z,96659.00
2022-11-17T06:02:06.123Z,96680.00
2022-11-17T06:04:38.249Z,96666.00
2022-11-17T06:07:10.108Z,96674.00
2022-11-17T06:09:42.440Z,96669.00
2022-11-17T06:12:15.254Z,96664.00
2022-11-17T06:14:46.159Z,96675.00
2022-11-17T06:17:22.858Z,96680.00
2022-11-17T06:20:15.528Z,96668.00
2022-11-17T06:22:48.723Z,96688.00
2022-11-17T06:25:20.840Z,96677.00
2022-11-17T06:27:52.561Z,96671.00
2022-11-17T06:30:23.522Z,96669.00
2022-11-17T06:32:56.417Z,96678.00
2022-11-17T06:35:28.868Z,96678.00
2022-11-17T06:38:00.288Z,96670.00
2022-11-17T06:40:31.313Z,96673.00
2022-11-17T06:43:11.490Z,96687.00
2022-11-17T06:45:45.293Z,96690.00
2022-11-17T06:48:18.397Z,96697.00
2022-11-17T06:50:49.271Z,96703.00
2022-11-17T06:53:23.010Z,96701.00
2022-11-17T06:56:06.329Z,96698.00
2022-11-17T06:58:40.255Z,96692.00
2022-11-17T07:01:14.380Z,96676.00
2022-11-17T07:03:45.346Z,96680.00
2022-11-17T07:06:16.370Z,96695.00
2022-11-17T07:08:47.327Z,96687.00
2022-11-17T07:11:18.561Z,96663.00
2022-11-17T07:13:49.434Z,96654.00
2022-11-17T07:16:23.752Z,96658.00
2022-11-17T07:18:55.019Z,96678.00
2022-11-17T07:21:26.233Z,96690.00
2022-11-17T07:23:57.169Z,96677.00
2022-11-17T07:26:28.166Z,96677.00
2022-11-17T07:28:59.030Z,96678.00
2022-11-17T07:31:29.964Z,96666.00
2022-11-17T07:34:00.815Z,96688.00
2022-11-17T07:36:31.692Z,96676.00
2022-11-17T07:39:02.639Z,96661.00
2022-11-17T07:41:33.523Z,96656.00
2022-11-17T07:44:04.577Z,96657.00
2022-11-17T07:46:35.479Z,96646.00
2022-11-17T07:49:06.338Z,96648.00
2022-11-17T07:51:37.339Z,96652.00
2022-11-17T07:54:08.217Z,96660.00
2022-11-17T07:56:39.119Z,96659.00
2022-11-17T07:59:10.326Z,96662.00
2022-11-17T08:01:42.144Z,96669.00
2022-11-17T08:04:13.098Z,96665.00
2022-11-17T08:06:43.975Z,96662.00
2022-11-17T08:09:16.193Z,96657.00
2022-11-17T08:11:47.081Z,96661.00
2022-11-17T08:14:17.991Z,96672.00
2022-11-17T08:16:48.891Z,96664.00
2022-11-17T08:19:20.924Z,96672.00
2022-11-17T08:21:51.979Z,96669.00
2022-11-17T08:24:22.863Z,96675.00
2022-11-17T08:26:54.666Z,96678.00
2022-11-17T08:29:25.563Z,96686.00
2022-11-17T08:31:56.437Z,96678.00
2022-11-17T08:34:27.304Z,96678.00
2022-11-17T08:36:58.181Z,96673.00
2022-11-17T08:39:29.018Z,96674.00
2022-11-17T08:41:59.919Z,96670.00
2022-11-17T08:44:31.334Z,96666.00
2022-11-17T08:47:02.325Z,96676.00
2022-11-17T08:49:33.181Z,96674.00
2022-11-17T08:52:04.300Z,96680.00
2022-11-17T08:54:35.236Z,96689.00
2022-11-17T08:57:06.235Z,96690.00
2022-11-17T08:59:37.124Z,96693.00
2022-11-17T09:02:08.149Z,96708.00
2022-11-17T09:04:39.357Z,96700.00
2022-11-17T09:07:10.427Z,96701.00
2022-11-17T09:09:41.373Z,96698.00
2022-11-17T09:12:12.671Z,96710.00
2022-11-17T09:14:43.854Z,96734.00
2022-11-17T09:17:14.833Z,96723.00
2022-11-17T09:19:45.708Z,96729.00
2022-11-17T09:22:16.700Z,96752.00
2022-11-17T09:24:47.577Z,96717.00
2022-11-17T09:27:18.481Z,96722.00
2022-11-17T09:29:49.380Z,96725.00
2022-11-17T09:32:20.836Z,96723.00
2022-11-17T09:34:51.742Z,96749.00
2022-11-17T09:37:22.731Z,96749.00
2022-11-17T09:39:53.956Z,96731.00
2022-11-17T09:42:25.093Z,96745.00
2022-11-17T09:45:20.677Z,96743.00
2022-11-17T09:48:41.215Z,96750.00
2022-11-17T09:51:18.703Z,96752.00
2022-11-17T09:54:11.307Z,96742.00
2022-11-17T09:56:43.407Z,96745.00
2022-11-17T09:59:19.071Z,96739.00
2022-11-17T10:01:50.007Z,96748.00
2022-11-17T10:04:21.047Z,96752.00
2022-11-17T10:06:52.045Z,96754.00
2022-11-17T10:09:38.376Z,96747.00
2022-11-17T10:12:22.235Z,96747.00
2022-11-17T10:14:55.277Z,96753.00
2022-11-17T10:17:26.158Z,96752.00
2022-11-17T10:19:57.001Z,96741.00
2022-11-17T10:22:36.263Z,96742.00
2022-11-17T10:25:41.596Z,96749.00
2022-11-17T10:28:31.988Z,96744.00
2022-11-17T10:31:19.578Z,96734.00
2022-11-17T10:33:51.438Z,96747.00
2022-11-17T10:36:32.981Z,96753.00
2022-11-17T10:39:04.297Z,96747.00
2022-11-17T10:41:43.089Z,96753.00
2022-11-17T10:44:28.338Z,96758.00
2022-11-17T10:47:04.133Z,96753.00
2022-11-17T10:49:39.747Z,96751.00
2022-11-17T10:52:18.606Z,96744.00
2022-11-17T10:54:49.906Z,96753.00
2022-11-17T10:57:24.860Z,96760.00
2022-11-17T10:59:59.748Z,96770.00
2022-11-17T11:02:39.513Z,96757.00
2022-11-17T11:05:17.239Z,96750.00
2022-11-17T11:07:48.340Z,96749.00
2022-11-17T11:10:32.765Z,96754.00
2022-11-17T11:13:25.702Z,96789.00
2022-11-17T11:15:56.658Z,96755.00
2022-11-17T11:18:30.371Z,96746.00
2022-11-17T11:21:28.609Z,96734.00
2022-11-17T11:24:26.503Z,96751.00
2022-11-17T11:27:08.197Z,96755.00
2022-11-17T11:30:12.416Z,96753.00
2022-11-17T11:33:15.043Z,96749.00
2022-11-17T11:36:16.390Z,96753.00
2022-11-17T11:39:21.720Z,96743.00
2022-11-17T11:42:15.051Z,96770.00
2022-11-17T11:45:03.422Z,96753.00
2022-11-17T11:47:44.148Z,96755.00
2022-11-17T11:50:34.517Z,96748.00
2022-11-17T11:53:49.214Z,96766.00
2022-11-17T11:56:40.838Z,96765.00
2022-11-17T11:59:34.318Z,96775.00
2022-11-17T12:02:11.490Z,96766.00
2022-11-17T12:04:51.045Z,96764.00
2022-11-17T12:07:39.952Z,96759.00
2022-11-17T12:10:29.447Z,96750.00
2022-11-17T12:13:02.227Z,96763.00
2022-11-17T12:15:35.616Z,96769.00
2022-11-17T12:18:26.920Z,96750.00
2022-11-17T12:21:11.730Z,96741.00
2022-11-17T12:24:17.069Z,96752.00
2022-11-17T12:26:47.977Z,96743.00
2022-11-17T12:29:22.085Z,96745.00
2022-11-17T12:31:59.177Z,96744.00
2022-11-17T12:34:33.913Z,96757.00
2022-11-17T12:37:22.550Z,96763.00
2022-11-17T12:40:05.919Z,96765.00
2022-11-17T12:42:37.278Z,96774.00
2022-11-17T12:45:12.899Z,96760.00
2022-11-17T12:47:59.194Z,96763.00
2022-11-17T12:51:05.066Z,96745.00
2022-11-17T12:54:06.486Z,96754.00
2022-11-17T12:57:03.123Z,96751.00
2022-11-17T12:59:51.970Z,96758.00
2022-11-17T13:02:49.942Z,96755.00
2022-11-17T13:05:25.592Z,96758.00
2022-11-17T13:08:25.464Z,96770.00
2022-11-17T13:11:14.466Z,96758.00
2022-11-17T13:13:47.290Z,96768.00
2022-11-17T13:16:21.008Z,96772.00
2022-11-17T13:18:51.908Z,96753.00
2022-11-17T13:21:25.814Z,96743.00
2022-11-17T13:23:59.197Z,96755.00
2022-11-17T13:26:37.601Z,96754.00
2022-11-17T13:29:14.947Z,96762.00
2022-11-17T13:31:46.705Z,96760.00
2022-11-17T13:34:21.373Z,96766.00
2022-11-17T13:36:55.533Z,96755.00
2022-11-17T13:39:28.276Z,96757.00
2022-11-17T13:42:04.942Z,96761.00
2022-11-17T13:44:36.073Z,96760.00
2022-11-17T13:47:21.784Z,96763.00
2022-11-17T13:49:52.682Z,96756.00
2022-11-17T13:52:43.544Z,96766.00
2022-11-17T13:55:20.317Z,96768.00
2022-11-17T13:58:02.794Z,96765.00
2022-11-17T14:00:34.578Z,96779.00
2022-11-17T14:03:46.591Z,96800.00
2022-11-17T14:06:17.632Z,96772.00
2022-11-17T14:09:07.562Z,96782.00
2022-11-17T14:11:41.686Z,96779.00
2022-11-17T14:14:17.550Z,96773.00
2022-11-17T14:16:49.088Z,96774.00
2022-11-17T14:19:20.427Z,96776.00
2022-11-17T14:22:29.238Z,96783.00
2022-11-17T14:25:02.035Z,96771.00
2022-11-17T14:27:36.239Z,96778.00
2022-11-17T14:30:12.301Z,96771.00
2022-11-17T14:32:43.259Z,96770.00
2022-11-17T14:35:15.660Z,96763.00
2022-11-17T14:37:46.866Z,96764.00
2022-11-17T14:40:18.510Z,96766.00
2022-11-17T14:42:49.437Z,96769.00
2022-11-17T14:45:20.340Z,96765.00
2022-11-17T14:47:51.258Z,96762.00
2022-11-17T14:50:22.726Z,96767.00
2022-11-17T14:52:53.719Z,96766.00
2022-11-17T14:55:26.417Z,96750.00
2022-11-17T14:57:57.387Z,96743.00
2022-11-17T15:00:28.503Z,96747.00
2022-11-17T15:02:59.417Z,96752.00
2022-11-17T15:05:30.353Z,96743.00
2022-11-17T15:08:01.341Z,96749.00
2022-11-17T15:10:32.188Z,96754.00
2022-11-17T15:13:03.097Z,96751.00
2022-11-17T15:15:33.944Z,96751.00
2022-11-17T15:18:05.491Z,96758.00
2022-11-17T15:20:39.169Z,96760.00
2022-11-17T15:23:10.112Z,96757.00
2022-11-17T15:25:40.980Z,96747.00
2022-11-17T15:28:15.294Z,96746.00
2022-11-17T15:30:50.046Z,96749.00
2022-11-17T15:33:21.003Z,96741.00
2022-11-17T15:36:03.269Z,96741.00
2022-11-17T15:38:34.331Z,96722.00
2022-11-17T15:41:07.244Z,96730.00
2022-11-17T15:43:40.891Z,96724.00
2022-11-17T15:46:17.420Z,96733.00
2022-11-17T15:48:52.381Z,96731.00
2022-11-17T15:51:26.580Z,96728.00
2022-11-17T15:54:00.133Z,96736.00
2022-11-17T15:56:38.724Z,96730.00
2022-11-17T15:59:11.499Z,96752.00
2022-11-17T16:01:42.636Z,96730.00
2022-11-17T16:04:16.033Z,96735.00
2022-11-17T16:06:47.420Z,96735.00
2022-11-17T16:09:18.483Z,96734.00
2022-11-17T16:11:51.922Z,96731.00
2022-11-17T16:14:22.856Z,96732.00
2022-11-17T16:16:53.803Z,96728.00
2022-11-17T16:19:24.672Z,96751.00
2022-11-17T16:21:58.531Z,96745.00
2022-11-17T16:24:29.511Z,96747.00
2022-11-17T16:27:00.563Z,96742.00
2022-11-17T16:29:31.473Z,96740.00
2022-11-17T16:32:02.430Z,96736.00
2022-11-17T16:34:33.434Z,96743.00
2022-11-17T16:37:04.315Z,96746.00
2022-11-17T16:39:35.207Z,96736.00
2022-11-17T16:42:06.388Z,96732.00
2022-11-17T16:44:37.421Z,96759.00
2022-11-17T16:47:08.417Z,96727.00
2022-11-17T16:49:39.288Z,96740.00
2022-11-17T16:52:12.441Z,96730.00
2022-11-17T16:54:43.423Z,96728.00
2022-11-17T16:57:14.367Z,96741.00
2022-11-17T16:59:45.270Z,96735.00
2022-11-17T17:02:16.171Z,96749.00
2022-11-17T17:04:47.064Z,96744.00
2022-11-17T17:07:18.235Z,96735.00
2022-11-17T17:09:49.150Z,96745.00
2022-11-17T17:12:20.130Z,96744.00
2022-11-17T17:14:51.059Z,96744.00
2022-11-17T17:17:21.998Z,96743.00
2022-11-17T17:19:52.891Z,96750.00
2022-11-17T17:22:23.782Z,96734.00
2022-11-17T17:24:57.272Z,96745.00
2022-11-17T17:27:31.045Z,96739.00
2022-11-17T17:30:01.957Z,96751.00
2022-11-17T17:32:33.482Z,96755.00
2022-11-17T17:35:05.045Z,96763.00
2022-11-17T17:37:35.967Z,96763.00
2022-11-17T17:40:08.151Z,96770.00
2022-11-17T17:42:39.040Z,96774.00
2022-11-17T17:45:11.033Z,96769.00
2022-11-17T17:47:42.133Z,96768.00
2022-11-17T17:50:13.041Z,96778.00
2022-11-17T17:52:43.925Z,96764.00
2022-11-17T17:55:16.024Z,96765.00
2022-11-17T17:57:46.905Z,96785.00
2022-11-17T18:00:18.588Z,96762.00
2022-11-17T18:02:49.620Z,96747.00
2022-11-17T18:05:22.587Z,96746.00
2022-11-17T18:07:53.470Z,96751.00
2022-11-17T18:10:25.145Z,96752.00
2022-11-17T18:12:56.034Z,96748.00
2022-11-17T18:15:27.011Z,96757.00
2022-11-17T18:17:57.991Z,96755.00
2022-11-17T18:20:29.036Z,96759.00
2022-11-17T18:22:59.965Z,96756.00
2022-11-17T18:25:33.167Z,96754.00
2022-11-17T18:28:04.086Z,96751.00
2022-11-17T18:30:37.479Z,96748.00
2022-11-17T18:33:08.479Z,96753.00
2022-11-17T18:35:39.553Z,96747.00
2022-11-17T18:38:10.451Z,96739.00
2022-11-17T18:40:41.554Z,96746.00
2022-11-17T18:43:12.580Z,96761.00
2022-11-17T18:45:43.662Z,96760.00
2022-11-17T18:48:14.542Z,96767.00
2022-11-17T18:51:12.184Z,96760.00
2022-11-17T18:53:36.770Z,96769.00
2022-11-17T18:56:13.708Z,96773.00
2022-11-17T18:58:45.828Z,96775.00
2022-11-17T19:01:25.787Z,96785.00
2022-11-17T19:04:00.803Z,96786.00
2022-11-17T19:06:34.851Z,96776.00
2022-11-17T19:09:06.137Z,96784.00
2022-11-17T19:11:37.142Z,96796.00
2022-11-17T19:14:08.166Z,96793.00
2022-11-17T19:16:44.445Z,96802.00
2022-11-17T19:19:16.637Z,96801.00
2022-11-17T19:21:47.768Z,96807.00
2022-11-17T19:24:18.661Z,96813.00
2022-11-17T19:26:49.641Z,96813.00
2022-11-17T19:29:21.245Z,96808.00
2022-11-17T19:31:52.850Z,96813.00
2022-11-17T19:34:23.711Z,96817.00
2022-11-17T19:36:54.625Z,96819.00
2022-11-17T19:39:27.433Z,96819.00
2022-11-17T19:41:58.367Z,96826.00
2022-11-17T19:44:29.344Z,96827.00
2022-11-17T19:47:00.710Z,96831.00
2022-11-17T19:49:31.595Z,96849.00
2022-11-17T19:52:02.609Z,96864.00
2022-11-17T19:54:33.623Z,96880.00
2022-11-17T19:57:04.581Z,96901.00
2022-11-17T19:59:35.443Z,96906.00
2022-11-17T20:02:06.548Z,96911.00
2022-11-17T20:04:37.906Z,96916.00
2022-11-17T20:07:12.053Z,96918.00
2022-11-17T20:09:42.953Z,96920.00
2022-11-17T20:12:13.861Z,96915.00
2022-11-17T20:14:44.797Z,96912.00
2022-11-17T20:17:17.760Z,96906.00
2022-11-17T20:19:48.712Z,96893.00
2022-11-17T20:22:19.617Z,96896.00
2022-11-17T20:24:50.502Z,96890.00
2022-11-17T20:27:21.530Z,96887.00
2022-11-17T20:29:52.374Z,96881.00
2022-11-17T20:32:23.280Z,96883.00
2022-11-17T20:34:54.120Z,96890.00
2022-11-17T20:37:25.190Z,96906.00
2022-11-17T20:39:57.076Z,96903.00
2022-11-17T20:42:28.020Z,96917.00
2022-11-17T20:44:58.927Z,96925.00
2022-11-17T20:47:30.992Z,96926.00
2022-11-17T20:50:02.036Z,96929.00
2022-11-17T20:52:32.958Z,96931.00
2022-11-17T20:55:04.178Z,96946.00
2022-11-17T20:57:35.145Z,96943.00
2022-11-17T21:00:06.955Z,96950.00
2022-11-17T21:02:37.898Z,96953.00
2022-11-17T21:05:09.757Z,96949.00
2022-11-17T21:07:43.500Z,96952.00
2022-11-17T21:10:14.731Z,96951.00
2022-11-17T21:12:45.651Z,96951.00
2022-11-17T21:15:16.631Z,96958.00
2022-11-17T21:18:06.235Z,96951.00
2022-11-17T21:20:37.156Z,96937.00
2022-11-17T21:23:08.134Z,96946.00
2022-11-17T21:25:39.034Z,96950.00
2022-11-17T21:28:09.910Z,96950.00
2022-11-17T21:30:40.783Z,96953.00
2022-11-17T21:33:11.771Z,96959.00
2022-11-17T21:35:42.824Z,96958.00
2022-11-17T21:38:13.960Z,96965.00
2022-11-17T21:40:44.875Z,96965.00
2022-11-17T21:43:15.771Z,96956.00
2022-11-17T21:45:47.426Z,96962.00
2022-11-17T21:48:18.313Z,96961.00
2022-11-17T21:50:49.190Z,96967.00
2022-11-17T21:53:20.440Z,96969.00
2022-11-17T21:55:51.412Z,96970.00
2022-11-17T21:58:22.699Z,96974.00
2022-11-17T22:00:53.630Z,96989.00
2022-11-17T22:03:25.082Z,96981.00
2022-11-17T22:06:16.085Z,96978.00
2022-11-17T22:08:47.826Z,96970.00
2022-11-17T22:11:38.299Z,96965.00
2022-11-17T22:14:14.467Z,96953.00
2022-11-17T22:16:48.106Z,96935.00
2022-11-17T22:19:21.545Z,96946.00
2022-11-17T22:21:54.618Z,96936.00
2022-11-17T22:24:25.560Z,96943.00
2022-11-17T22:26:56.460Z,96943.00
2022-11-17T22:29:27.322Z,96943.00
2022-11-17T22:31:58.291Z,96945.00
2022-11-17T22:34:29.143Z,96936.00
2022-11-17T22:37:00.058Z,96954.00
2022-11-17T22:39:31.051Z,96928.00
2022-11-17T22:42:02.097Z,96916.00
2022-11-17T22:44:32.971Z,96921.00
2022-11-17T22:47:03.861Z,96922.00
2022-11-17T22:49:34.722Z,96956.00
2022-11-17T22:52:10.215Z,96941.00
2022-11-17T22:54:41.165Z,96931.00
2022-11-17T22:57:12.036Z,96939.00
2022-11-17T22:59:42.918Z,96940.00
2022-11-17T23:02:13.811Z,96938.00
2022-11-17T23:04:44.658Z,96933.00
2022-11-17T23:07:15.588Z,96924.00
2022-11-17T23:09:46.500Z,96923.00
2022-11-17T23:12:17.397Z,96951.00
2022-11-17T23:14:48.262Z,96931.00
2022-11-17T23:17:20.982Z,96927.00
2022-11-17T23:19:51.917Z,96950.00
2022-11-17T23:22:22.797Z,96931.00
2022-11-17T23:24:53.671Z,96941.00
2022-11-17T23:27:24.598Z,96931.00
2022-11-17T23:29:55.544Z,96931.00
2022-11-17T23:32:26.443Z,96927.00
2022-11-17T23:34:57.315Z,96924.00
2022-11-17T23:37:29.405Z,96927.00
2022-11-17T23:40:00.278Z,96930.00
2022-11-17T23:42:32.640Z,96928.00
2022-11-17T23:45:04.884Z,96929.00
2022-11-17T23:47:35.770Z,96923.00
2022-11-17T23:50:07.435Z,96925.00
2022-11-17T23:52:38.320Z,96926.00
2022-11-17T23:55:09.311Z,96922.00
2022-11-17T23:57:40.188Z,96921.00
